PILOTS ONLINE: 389    ATC ONLINE: 69

EGXC

RAF Coningsby

Location

IATA QCY
City Coningsby
Country  United Kingdom
Latitude 53° 5' 34" N
Longitude 0° 9' 57" W
Elevation 25 ft
Type Medium Airport

Map

Weather

METAR
2014/08/22 22:50
EGXC 222250Z 27005KT CAVOK 10/07 Q1012 BLU
TAF
2009/08/27 09:06
TAF 
      AMD EGXC 270906Z 2709/2803 CNL= TAF KNGU 2709/2809 VRB06KT 9999 FEW200 QNH3004INS 
      BECMG 2719/2721 08008KT FEW050 SCT100 SCT200 QNH3001INS T32/2718Z T24/2808Z

Runways

07/25 9003 ft / 200 ft

Outbound flights

Callsign Flying to Pilot ATD/STD ETA Aircraft

Inbound flights

Callsign Flying from Pilot ATD ETA Aircraft